createdAt,value
2024-02-21T00:00:18.443Z,10.20
2024-02-21T00:02:45.113Z,10.17
2024-02-21T00:05:12.427Z,10.15
2024-02-21T00:07:39.148Z,10.14
2024-02-21T00:10:06.450Z,10.13
2024-02-21T00:12:33.129Z,10.15
2024-02-21T00:14:59.806Z,10.15
2024-02-21T00:17:27.459Z,10.14
2024-02-21T00:19:54.311Z,10.13
2024-02-21T00:22:21.066Z,10.13
2024-02-21T00:24:47.765Z,10.13
2024-02-21T00:27:14.424Z,10.16
2024-02-21T00:29:41.104Z,10.19
2024-02-21T00:32:07.700Z,10.20
2024-02-21T00:34:34.845Z,10.18
2024-02-21T00:37:01.558Z,10.15
2024-02-21T00:39:28.205Z,10.06
2024-02-21T00:41:54.827Z,10.02
2024-02-21T00:44:21.579Z,10.05
2024-02-21T00:46:48.482Z,10.06
2024-02-21T00:49:15.296Z,10.14
2024-02-21T00:51:42.043Z,10.14
2024-02-21T00:54:08.745Z,10.12
2024-02-21T00:56:35.467Z,10.10
2024-02-21T00:59:02.151Z,10.12
2024-02-21T01:01:28.972Z,10.17
2024-02-21T01:03:55.826Z,10.13
2024-02-21T01:06:22.922Z,10.13
2024-02-21T01:08:49.655Z,10.11
2024-02-21T01:11:17.209Z,10.17
2024-02-21T01:13:44.005Z,10.16
2024-02-21T01:16:10.860Z,10.13
2024-02-21T01:18:41.012Z,10.11
2024-02-21T01:21:09.251Z,10.09
2024-02-21T01:23:36.449Z,10.09
2024-02-21T01:26:04.183Z,10.11
2024-02-21T01:28:31.840Z,10.16
2024-02-21T01:30:58.808Z,10.20
2024-02-21T01:33:25.536Z,10.21
2024-02-21T01:35:52.470Z,10.23
2024-02-21T01:38:19.330Z,10.18
2024-02-21T01:40:46.180Z,10.18
2024-02-21T01:43:21.213Z,10.22
2024-02-21T01:45:51.072Z,10.18
2024-02-21T01:48:19.417Z,10.19
2024-02-21T01:50:47.914Z,10.27
2024-02-21T01:53:19.958Z,10.25
2024-02-21T01:55:50.157Z,10.19
2024-02-21T01:58:18.357Z,10.16
2024-02-21T02:00:46.672Z,10.15
2024-02-21T02:03:20.444Z,10.16
2024-02-21T02:05:48.438Z,10.18
2024-02-21T02:08:19.662Z,10.17
2024-02-21T02:10:47.293Z,10.15
2024-02-21T02:13:14.304Z,10.17
2024-02-21T02:15:45.938Z,10.18
2024-02-21T02:18:13.830Z,10.20
2024-02-21T02:20:41.212Z,10.16
2024-02-21T02:23:27.275Z,10.19
2024-02-21T02:25:54.180Z,10.13
2024-02-21T02:28:22.288Z,10.10
2024-02-21T02:30:49.613Z,10.11
2024-02-21T02:33:19.067Z,10.14
2024-02-21T02:35:46.619Z,10.15
2024-02-21T02:38:14.710Z,10.03
2024-02-21T02:40:42.808Z,10.04
2024-02-21T02:43:09.953Z,10.06
2024-02-21T02:45:36.989Z,10.01
2024-02-21T02:48:04.182Z,9.97
2024-02-21T02:50:31.068Z,9.98
2024-02-21T02:52:57.902Z,9.97
2024-02-21T02:55:25.063Z,9.96
2024-02-21T02:57:51.912Z,9.90
2024-02-21T03:00:18.759Z,9.89
2024-02-21T03:02:47.503Z,9.90
2024-02-21T03:05:19.394Z,9.89
2024-02-21T03:07:47.516Z,9.87
2024-02-21T03:10:14.882Z,9.86
2024-02-21T03:12:41.730Z,9.91
2024-02-21T03:15:08.728Z,9.85
2024-02-21T03:17:35.804Z,9.84
2024-02-21T03:20:06.452Z,9.80
2024-02-21T03:22:36.450Z,9.80
2024-02-21T03:25:03.326Z,9.79
2024-02-21T03:27:30.029Z,9.81
2024-02-21T03:29:56.773Z,9.86
2024-02-21T03:32:23.507Z,9.86
2024-02-21T03:34:50.195Z,9.88
2024-02-21T03:37:16.947Z,9.87
2024-02-21T03:39:43.563Z,9.81
2024-02-21T03:42:10.203Z,9.79
2024-02-21T03:44:37.833Z,9.76
2024-02-21T03:47:04.620Z,9.71
2024-02-21T03:49:31.413Z,9.66
2024-02-21T03:51:58.078Z,9.63
2024-02-21T03:54:24.827Z,9.62
2024-02-21T03:56:51.569Z,9.66
2024-02-21T03:59:18.244Z,9.60
2024-02-21T04:01:44.972Z,9.67
2024-02-21T04:04:12.236Z,9.69
2024-02-21T04:06:47.575Z,9.67
2024-02-21T04:09:14.246Z,9.64
2024-02-21T04:11:40.900Z,9.64
2024-02-21T04:14:08.290Z,9.61
2024-02-21T04:16:35.839Z,9.55
2024-02-21T04:19:03.359Z,9.60
2024-02-21T04:21:30.366Z,9.59
2024-02-21T04:23:57.066Z,9.51
2024-02-21T04:26:23.723Z,9.42
2024-02-21T04:28:50.447Z,9.47
2024-02-21T04:31:17.233Z,9.50
2024-02-21T04:33:44.109Z,9.42
2024-02-21T04:36:10.857Z,9.40
2024-02-21T04:38:37.522Z,9.42
2024-02-21T04:41:04.280Z,9.41
2024-02-21T04:43:30.934Z,9.41
2024-02-21T04:45:57.693Z,9.40
2024-02-21T04:48:24.318Z,9.38
2024-02-21T04:50:50.977Z,9.38
2024-02-21T04:53:17.711Z,9.41
2024-02-21T04:55:44.487Z,9.36
2024-02-21T04:58:11.270Z,9.35
2024-02-21T05:00:38.016Z,9.40
2024-02-21T05:03:05.133Z,9.46
2024-02-21T05:05:32.011Z,9.51
2024-02-21T05:07:58.885Z,9.56
2024-02-21T05:10:25.628Z,9.63
2024-02-21T05:12:52.295Z,9.69
2024-02-21T05:15:18.967Z,9.73
2024-02-21T05:17:45.700Z,9.76
2024-02-21T05:20:12.800Z,9.78
2024-02-21T05:22:39.600Z,9.80
2024-02-21T05:25:07.181Z,9.80
2024-02-21T05:27:33.942Z,9.80
2024-02-21T05:30:00.609Z,9.79
2024-02-21T05:32:27.804Z,9.78
2024-02-21T05:34:54.664Z,9.77
2024-02-21T05:37:21.436Z,9.75
2024-02-21T05:39:48.211Z,9.71
2024-02-21T05:42:14.927Z,9.68
2024-02-21T05:44:41.599Z,9.68
2024-02-21T05:47:11.316Z,9.64
2024-02-21T05:49:38.489Z,9.63
2024-02-21T05:52:07.164Z,9.64
2024-02-21T05:54:34.048Z,9.60
2024-02-21T05:57:00.805Z,9.49
2024-02-21T05:59:27.448Z,9.38
2024-02-21T06:01:59.158Z,9.33
2024-02-21T06:04:26.220Z,9.32
2024-02-21T06:06:53.080Z,9.30
2024-02-21T06:09:19.751Z,9.30
2024-02-21T06:11:47.731Z,9.30
2024-02-21T06:14:14.562Z,9.32
2024-02-21T06:16:41.365Z,9.34
2024-02-21T06:19:10.346Z,9.36
2024-02-21T06:21:38.092Z,9.39
2024-02-21T06:24:05.213Z,9.41
2024-02-21T06:26:31.838Z,9.40
2024-02-21T06:29:00.944Z,9.40
2024-02-21T06:31:28.582Z,9.38
2024-02-21T06:33:55.392Z,9.39
2024-02-21T06:36:22.059Z,9.40
2024-02-21T06:38:48.861Z,9.42
2024-02-21T06:41:20.259Z,9.43
2024-02-21T06:43:47.825Z,9.44
2024-02-21T06:46:28.117Z,9.47
2024-02-21T06:48:55.039Z,9.50
2024-02-21T06:51:21.880Z,9.51
2024-02-21T06:53:48.598Z,9.54
2024-02-21T06:56:15.407Z,9.57
2024-02-21T06:58:42.425Z,9.62
2024-02-21T07:01:09.854Z,9.66
2024-02-21T07:03:36.580Z,9.71
2024-02-21T07:06:03.798Z,9.75
2024-02-21T07:08:30.934Z,9.80
2024-02-21T07:10:57.719Z,9.89
2024-02-21T07:13:24.558Z,9.96
2024-02-21T07:15:51.309Z,10.03
2024-02-21T07:18:18.275Z,10.10
2024-02-21T07:20:46.200Z,10.16
2024-02-21T07:23:12.867Z,10.20
2024-02-21T07:25:40.789Z,10.26
2024-02-21T07:28:07.962Z,10.29
2024-02-21T07:30:34.749Z,10.34
2024-02-21T07:33:01.642Z,10.37
2024-02-21T07:35:28.395Z,10.41
2024-02-21T07:37:55.086Z,10.47
2024-02-21T07:40:21.898Z,10.54
2024-02-21T07:42:51.668Z,10.59
2024-02-21T07:45:20.059Z,10.60
2024-02-21T07:47:47.010Z,10.64
2024-02-21T07:50:13.853Z,10.69
2024-02-21T07:52:40.710Z,10.71
2024-02-21T07:55:07.711Z,10.72
2024-02-21T07:57:34.433Z,10.71
2024-02-21T08:00:01.181Z,10.70
2024-02-21T08:02:27.892Z,10.68
2024-02-21T08:04:54.703Z,10.67
2024-02-21T08:07:21.385Z,10.65
2024-02-21T08:09:48.065Z,10.64
2024-02-21T08:12:14.711Z,10.63
2024-02-21T08:14:41.367Z,10.60
2024-02-21T08:17:08.070Z,10.59
2024-02-21T08:19:34.913Z,10.63
2024-02-21T08:22:01.746Z,10.70
2024-02-21T08:24:28.429Z,10.79
2024-02-21T08:26:55.099Z,10.89
2024-02-21T08:29:21.852Z,11.02
2024-02-21T08:31:48.558Z,11.20
2024-02-21T08:34:15.349Z,11.39
2024-02-21T08:36:42.148Z,11.54
2024-02-21T08:39:10.858Z,11.63
2024-02-21T08:41:50.861Z,11.67
2024-02-21T08:44:29.571Z,11.69
2024-02-21T08:46:57.214Z,11.70
2024-02-21T08:49:25.105Z,11.74
2024-02-21T08:51:52.649Z,11.86
2024-02-21T08:54:19.336Z,11.99
2024-02-21T08:56:46.010Z,12.10
2024-02-21T08:59:12.932Z,12.22
2024-02-21T09:01:39.867Z,12.34
2024-02-21T09:04:06.753Z,12.42
2024-02-21T09:06:34.936Z,12.46
2024-02-21T09:09:02.144Z,12.49
2024-02-21T09:11:29.369Z,12.51
2024-02-21T09:13:56.504Z,12.54
2024-02-21T09:16:24.519Z,12.58
2024-02-21T09:18:51.926Z,12.59
2024-02-21T09:21:18.698Z,12.59
2024-02-21T09:23:46.654Z,12.64
2024-02-21T09:26:17.293Z,12.75
2024-02-21T09:28:45.528Z,12.81
2024-02-21T09:31:12.263Z,12.91
2024-02-21T09:33:39.026Z,13.00
2024-02-21T09:36:09.429Z,13.08
2024-02-21T09:38:36.039Z,13.15
2024-02-21T09:41:30.877Z,13.20
2024-02-21T09:43:58.210Z,13.24
2024-02-21T09:47:18.658Z,13.35
2024-02-21T09:49:46.908Z,13.48
2024-02-21T09:52:15.408Z,13.57
2024-02-21T09:54:46.447Z,13.73
2024-02-21T09:57:14.418Z,13.87
2024-02-21T09:59:43.086Z,14.01
2024-02-21T10:02:10.385Z,14.21
2024-02-21T10:04:37.384Z,14.39
2024-02-21T10:07:05.456Z,14.52
2024-02-21T10:09:32.312Z,14.60
2024-02-21T10:12:20.305Z,14.63
2024-02-21T10:14:47.058Z,14.75
2024-02-21T10:17:19.903Z,14.84
2024-02-21T10:19:48.615Z,14.96
2024-02-21T10:22:16.814Z,15.02
2024-02-21T10:24:43.780Z,15.11
2024-02-21T10:27:14.163Z,15.19
2024-02-21T10:29:42.401Z,15.27
2024-02-21T10:32:14.316Z,15.34
2024-02-21T10:34:42.900Z,15.41
2024-02-21T10:37:10.899Z,15.45
2024-02-21T10:39:40.027Z,15.38
2024-02-21T10:42:06.979Z,15.31
2024-02-21T10:44:37.657Z,15.35
2024-02-21T10:47:10.559Z,15.45
2024-02-21T10:49:48.665Z,15.51
2024-02-21T10:52:28.039Z,15.59
2024-02-21T10:54:59.400Z,15.74
2024-02-21T10:57:28.652Z,15.87
2024-02-21T10:59:59.606Z,15.99
2024-02-21T11:02:29.943Z,16.09
2024-02-21T11:04:57.754Z,16.19
2024-02-21T11:07:25.054Z,16.23
2024-02-21T11:09:56.430Z,16.32
2024-02-21T11:12:27.228Z,16.39
2024-02-21T11:14:54.189Z,16.34
2024-02-21T11:17:27.801Z,16.24
2024-02-21T11:19:54.772Z,16.15
2024-02-21T11:22:23.989Z,16.03
2024-02-21T11:24:51.336Z,15.84
2024-02-21T11:27:27.434Z,15.76
2024-02-21T11:29:58.184Z,15.71
2024-02-21T11:32:26.796Z,15.63
2024-02-21T11:35:03.507Z,15.61
2024-02-21T11:37:35.208Z,15.50
2024-02-21T11:40:02.373Z,15.45
2024-02-21T11:42:30.199Z,15.51
2024-02-21T11:45:01.747Z,15.58
2024-02-21T11:47:30.316Z,15.65
2024-02-21T11:49:57.422Z,15.71
2024-02-21T11:52:26.938Z,15.77
2024-02-21T11:54:55.934Z,15.81
2024-02-21T11:57:22.863Z,15.83
2024-02-21T11:59:52.719Z,15.87
2024-02-21T12:02:20.890Z,15.93
2024-02-21T12:04:48.553Z,16.00
2024-02-21T12:07:15.717Z,16.04
2024-02-21T12:09:43.352Z,16.07
2024-02-21T12:12:10.106Z,16.10
2024-02-21T12:14:37.152Z,16.15
2024-02-21T12:17:07.947Z,16.17
2024-02-21T12:19:35.496Z,16.20
2024-02-21T12:22:03.071Z,16.24
2024-02-21T12:24:30.506Z,16.27
2024-02-21T12:26:58.114Z,16.29
2024-02-21T12:29:29.941Z,16.31
2024-02-21T12:31:57.003Z,16.33
2024-02-21T12:34:34.731Z,16.37
2024-02-21T12:37:14.247Z,16.38
2024-02-21T12:39:41.090Z,16.39
2024-02-21T12:42:07.865Z,16.38
2024-02-21T12:44:35.291Z,16.40
2024-02-21T12:47:02.115Z,16.42
2024-02-21T12:49:31.012Z,16.44
2024-02-21T12:51:57.894Z,16.48
2024-02-21T12:54:24.849Z,16.51
2024-02-21T12:56:51.578Z,16.55
2024-02-21T12:59:18.277Z,16.54
2024-02-21T13:01:45.098Z,16.56
2024-02-21T13:04:13.046Z,16.58
2024-02-21T13:06:40.031Z,16.57
2024-02-21T13:09:09.345Z,16.57
2024-02-21T13:11:36.142Z,16.54
2024-02-21T13:14:03.336Z,16.50
2024-02-21T13:16:30.291Z,16.46
2024-02-21T13:18:57.081Z,16.40
2024-02-21T13:21:23.972Z,16.35
2024-02-21T13:23:50.798Z,16.31
2024-02-21T13:26:17.668Z,16.25
2024-02-21T13:28:46.411Z,16.23
2024-02-21T13:31:13.364Z,16.22
2024-02-21T13:33:40.112Z,16.24
2024-02-21T13:36:07.239Z,16.25
2024-02-21T13:38:33.864Z,16.31
2024-02-21T13:41:01.856Z,16.36
2024-02-21T13:43:29.533Z,16.41
2024-02-21T13:46:01.166Z,16.41
2024-02-21T13:48:31.427Z,16.42
2024-02-21T13:50:58.564Z,16.41
2024-02-21T13:53:25.312Z,16.37
2024-02-21T13:55:52.201Z,16.32
2024-02-21T13:58:19.075Z,16.23
2024-02-21T14:00:46.149Z,16.13
2024-02-21T14:03:12.969Z,16.04
2024-02-21T14:05:43.405Z,16.00
2024-02-21T14:08:10.594Z,15.98
2024-02-21T14:10:38.478Z,15.94
2024-02-21T14:13:05.371Z,15.93
2024-02-21T14:15:31.997Z,15.90
2024-02-21T14:17:58.735Z,15.86
2024-02-21T14:20:25.602Z,15.79
2024-02-21T14:22:52.434Z,15.76
2024-02-21T14:25:19.212Z,15.80
2024-02-21T14:27:45.880Z,15.81
2024-02-21T14:30:12.777Z,15.83
2024-02-21T14:32:44.445Z,15.81
2024-02-21T14:35:11.203Z,15.79
2024-02-21T14:37:38.386Z,15.77
2024-02-21T14:40:05.774Z,15.76
2024-02-21T14:42:32.397Z,15.73
2024-02-21T14:45:05.075Z,15.70
2024-02-21T14:47:32.804Z,15.69
2024-02-21T14:49:59.718Z,15.65
2024-02-21T14:52:28.599Z,15.63
2024-02-21T14:54:55.418Z,15.60
2024-02-21T14:57:22.590Z,15.56
2024-02-21T14:59:54.062Z,15.53
2024-02-21T15:02:20.955Z,15.48
2024-02-21T15:04:48.632Z,15.44
2024-02-21T15:07:15.344Z,15.41
2024-02-21T15:09:42.138Z,15.37
2024-02-21T15:12:08.990Z,15.34
2024-02-21T15:14:35.654Z,15.29
2024-02-21T15:17:02.376Z,15.24
2024-02-21T15:19:29.335Z,15.19
2024-02-21T15:21:56.249Z,15.14
2024-02-21T15:24:22.904Z,15.07
2024-02-21T15:26:49.493Z,14.99
2024-02-21T15:29:16.241Z,14.92
2024-02-21T15:31:47.890Z,14.82
2024-02-21T15:34:16.777Z,14.73
2024-02-21T15:36:43.902Z,14.62
2024-02-21T15:39:11.896Z,14.49
2024-02-21T15:41:38.582Z,14.32
2024-02-21T15:44:05.743Z,14.19
2024-02-21T15:46:35.155Z,14.07
2024-02-21T15:49:02.087Z,14.00
2024-02-21T15:51:28.926Z,13.91
2024-02-21T15:53:55.629Z,13.83
2024-02-21T15:56:22.449Z,13.77
2024-02-21T15:58:49.612Z,13.70
2024-02-21T16:01:16.443Z,13.62
2024-02-21T16:03:43.122Z,13.54
2024-02-21T16:06:10.407Z,13.48
2024-02-21T16:08:42.042Z,13.39
2024-02-21T16:11:18.749Z,13.28
2024-02-21T16:13:47.694Z,13.16
2024-02-21T16:16:14.603Z,13.03
2024-02-21T16:18:41.253Z,12.89
2024-02-21T16:21:08.549Z,12.77
2024-02-21T16:23:36.118Z,12.66
2024-02-21T16:26:02.930Z,12.54
2024-02-21T16:28:29.701Z,12.38
2024-02-21T16:30:57.877Z,12.23
2024-02-21T16:33:26.057Z,12.14
2024-02-21T16:35:53.085Z,12.04
2024-02-21T16:38:19.820Z,11.95
2024-02-21T16:40:46.603Z,11.84
2024-02-21T16:43:13.298Z,11.79
2024-02-21T16:45:39.997Z,11.72
2024-02-21T16:48:07.032Z,11.67
2024-02-21T16:50:41.602Z,11.62
2024-02-21T16:53:12.608Z,11.57
2024-02-21T16:55:39.391Z,11.53
2024-02-21T16:58:06.105Z,11.48
2024-02-21T17:00:33.131Z,11.44
2024-02-21T17:03:00.456Z,11.39
2024-02-21T17:05:27.624Z,11.32
2024-02-21T17:07:54.825Z,11.25
2024-02-21T17:10:21.720Z,11.20
2024-02-21T17:12:48.376Z,11.15
2024-02-21T17:15:16.860Z,11.11
2024-02-21T17:17:43.954Z,11.05
2024-02-21T17:20:11.140Z,10.96
2024-02-21T17:22:38.149Z,10.86
2024-02-21T17:25:10.989Z,10.71
2024-02-21T17:27:38.566Z,10.69
2024-02-21T17:30:07.075Z,10.63
2024-02-21T17:32:35.670Z,10.59
2024-02-21T17:35:06.169Z,10.54
2024-02-21T17:37:36.159Z,10.41
2024-02-21T17:40:08.337Z,10.30
2024-02-21T17:42:35.907Z,10.22
2024-02-21T17:45:04.085Z,10.19
2024-02-21T17:47:31.809Z,10.06
2024-02-21T17:49:58.832Z,10.00
2024-02-21T17:52:27.859Z,10.01
2024-02-21T17:54:54.572Z,10.03
2024-02-21T17:57:21.273Z,10.01
2024-02-21T17:59:47.963Z,9.98
2024-02-21T18:02:20.796Z,9.94
2024-02-21T18:04:49.139Z,9.91
2024-02-21T18:07:15.922Z,9.85
2024-02-21T18:09:42.738Z,9.80
2024-02-21T18:12:09.716Z,9.77
2024-02-21T18:14:37.009Z,9.73
2024-02-21T18:17:03.791Z,9.72
2024-02-21T18:19:35.544Z,9.67
2024-02-21T18:22:03.337Z,9.63
2024-02-21T18:24:31.483Z,9.60
2024-02-21T18:26:58.324Z,9.62
2024-02-21T18:29:37.714Z,9.54
2024-02-21T18:32:09.589Z,9.47
2024-02-21T18:34:37.589Z,9.43
2024-02-21T18:37:04.672Z,9.41
2024-02-21T18:39:32.356Z,9.42
2024-02-21T18:41:59.358Z,9.35
2024-02-21T18:44:26.060Z,9.27
2024-02-21T18:46:52.873Z,9.24
2024-02-21T18:49:19.933Z,9.17
2024-02-21T18:51:47.535Z,9.10
2024-02-21T18:54:14.256Z,9.07
2024-02-21T18:56:45.120Z,9.09
2024-02-21T18:59:12.561Z,9.12
2024-02-21T19:01:39.474Z,9.10
2024-02-21T19:04:06.404Z,9.08
2024-02-21T19:06:33.245Z,9.06
2024-02-21T19:08:59.901Z,9.06
2024-02-21T19:11:26.906Z,9.06
2024-02-21T19:13:54.202Z,9.04
2024-02-21T19:16:20.867Z,9.00
2024-02-21T19:18:48.757Z,8.96
2024-02-21T19:21:15.708Z,8.85
2024-02-21T19:23:42.630Z,8.78
2024-02-21T19:26:10.300Z,8.72
2024-02-21T19:28:37.171Z,8.66
2024-02-21T19:31:06.838Z,8.67
2024-02-21T19:33:34.001Z,8.61
2024-02-21T19:36:03.690Z,8.60
2024-02-21T19:38:30.375Z,8.58
2024-02-21T19:40:57.012Z,8.54
2024-02-21T19:43:24.213Z,8.52
2024-02-21T19:45:51.137Z,8.49
2024-02-21T19:48:20.279Z,8.43
2024-02-21T19:50:47.195Z,8.35
2024-02-21T19:53:14.129Z,8.32
2024-02-21T19:55:41.261Z,8.30
2024-02-21T19:58:07.980Z,8.29
2024-02-21T20:00:34.949Z,8.27
2024-02-21T20:03:01.761Z,8.35
2024-02-21T20:05:28.561Z,8.46
2024-02-21T20:07:55.513Z,8.55
2024-02-21T20:10:22.820Z,8.61
2024-02-21T20:12:50.015Z,8.66
2024-02-21T20:15:16.942Z,8.67
2024-02-21T20:17:47.417Z,8.64
2024-02-21T20:20:14.994Z,8.66
2024-02-21T20:22:45.107Z,8.64
2024-02-21T20:25:12.041Z,8.60
2024-02-21T20:27:39.238Z,8.63
2024-02-21T20:30:06.803Z,8.66
2024-02-21T20:32:33.871Z,8.70
2024-02-21T20:35:00.884Z,8.71
2024-02-21T20:37:27.867Z,8.72
2024-02-21T20:39:54.783Z,8.73
2024-02-21T20:42:23.325Z,8.71
2024-02-21T20:44:50.132Z,8.69
2024-02-21T20:47:16.955Z,8.68
2024-02-21T20:49:44.084Z,8.63
2024-02-21T20:52:10.916Z,8.57
2024-02-21T20:54:37.582Z,8.55
2024-02-21T20:57:04.505Z,8.54
2024-02-21T20:59:31.340Z,8.53
2024-02-21T21:02:02.989Z,8.53
2024-02-21T21:04:31.532Z,8.57
2024-02-21T21:06:58.653Z,8.61
2024-02-21T21:09:27.139Z,8.63
2024-02-21T21:11:54.090Z,8.62
2024-02-21T21:14:21.054Z,8.66
2024-02-21T21:16:47.961Z,8.68
2024-02-21T21:19:14.851Z,8.69
2024-02-21T21:21:44.403Z,8.71
2024-02-21T21:24:13.057Z,8.69
2024-02-21T21:26:39.750Z,8.66
2024-02-21T21:29:06.652Z,8.72
2024-02-21T21:31:33.505Z,8.74
2024-02-21T21:34:00.346Z,8.81
2024-02-21T21:36:27.104Z,8.88
2024-02-21T21:38:54.730Z,8.91
2024-02-21T21:41:22.100Z,8.97
2024-02-21T21:43:48.945Z,9.00
2024-02-21T21:46:16.490Z,9.01
2024-02-21T21:48:43.823Z,9.04
2024-02-21T21:51:11.132Z,9.05
2024-02-21T21:53:37.797Z,9.08
2024-02-21T21:56:05.607Z,9.10
2024-02-21T21:58:36.215Z,9.09
2024-02-21T22:01:03.450Z,9.07
2024-02-21T22:03:30.183Z,9.10
2024-02-21T22:05:56.932Z,9.15
2024-02-21T22:08:23.573Z,9.17
2024-02-21T22:10:52.074Z,9.20
2024-02-21T22:13:19.717Z,9.21
2024-02-21T22:15:47.754Z,9.23
2024-02-21T22:18:14.872Z,9.23
2024-02-21T22:20:41.960Z,9.24
2024-02-21T22:23:10.781Z,9.24
2024-02-21T22:25:41.464Z,9.24
2024-02-21T22:28:08.960Z,9.27
2024-02-21T22:30:36.203Z,9.25
2024-02-21T22:33:03.130Z,9.25
2024-02-21T22:35:29.968Z,9.15
2024-02-21T22:37:56.745Z,9.11
2024-02-21T22:40:23.384Z,9.13
2024-02-21T22:42:50.005Z,9.17
2024-02-21T22:45:17.960Z,9.20
2024-02-21T22:47:44.722Z,9.21
2024-02-21T22:50:11.770Z,9.22
2024-02-21T22:52:38.493Z,9.24
2024-02-21T22:55:05.726Z,9.25
2024-02-21T22:57:32.737Z,9.26
2024-02-21T22:59:59.452Z,9.29
2024-02-21T23:02:26.160Z,9.30
2024-02-21T23:04:53.952Z,9.31
2024-02-21T23:07:20.868Z,9.30
2024-02-21T23:09:47.607Z,9.32
2024-02-21T23:12:18.178Z,9.34
2024-02-21T23:14:45.215Z,9.33
2024-02-21T23:17:11.968Z,9.31
2024-02-21T23:19:38.816Z,9.30
2024-02-21T23:22:05.585Z,9.30
2024-02-21T23:24:35.228Z,9.29
2024-02-21T23:27:02.669Z,9.25
2024-02-21T23:29:29.387Z,9.22
2024-02-21T23:31:56.135Z,9.22
2024-02-21T23:34:22.876Z,9.20
2024-02-21T23:36:49.672Z,9.20
2024-02-21T23:39:16.461Z,9.17
2024-02-21T23:41:43.106Z,9.18
2024-02-21T23:44:09.761Z,9.15
2024-02-21T23:46:36.853Z,9.13
2024-02-21T23:49:03.665Z,9.11
2024-02-21T23:51:31.224Z,9.13
2024-02-21T23:53:57.836Z,9.12
2024-02-21T23:56:24.538Z,9.10
2024-02-21T23:58:51.269Z,9.06
